Time;durP1;ratioP1;P1;durP2;ratioP2;P2;SDS_P1;SDS_P2;PMS_P1;PMS_P2;Temp;Humidity;BMP_temperature;BMP_pressure;BME280_temperature;BME280_humidity;BME280_pressure;Samples;Min_cycle;Max_cycle;Signal;HPM_P1;HPM_P2
2022/12/10 00:00:16;;;;;;;100.92;28.30;;;;;;;-0.74;100.00;94538.91;1034705;28;20018;-69
2022/12/10 00:00:47;;;;;;;99.12;27.36;;;;;;;-0.74;100.00;94542.28;1036805;28;20606;-73
2022/12/10 00:01:18;;;;;;;94.18;26.80;;;;;;;-0.77;100.00;94540.16;1043783;28;20064;-70
2022/12/10 00:01:49;;;;;;;96.76;26.30;;;;;;;-0.71;100.00;94539.25;1047548;28;20112;-68
2022/12/10 00:02:20;;;;;;;100.00;27.08;;;;;;;-0.79;100.00;94534.44;1042967;28;20047;-68
2022/12/10 00:02:51;;;;;;;105.80;28.17;;;;;;;-0.75;100.00;94538.13;1042819;28;20071;-68
2022/12/10 00:03:21;;;;;;;98.68;27.50;;;;;;;-0.67;100.00;94541.38;1035616;28;20033;-68
2022/12/10 00:03:52;;;;;;;90.70;27.77;;;;;;;-0.73;100.00;94536.13;1039651;28;20148;-68
2022/12/10 00:04:22;;;;;;;99.68;26.98;;;;;;;-0.74;100.00;94539.72;1043104;28;20025;-69
2022/12/10 00:04:53;;;;;;;97.43;27.20;;;;;;;-0.73;100.00;94532.78;1043674;28;20067;-70
2022/12/10 00:05:23;;;;;;;97.30;26.77;;;;;;;-0.68;100.00;94532.09;1047218;28;20032;-69
2022/12/10 00:05:54;;;;;;;93.40;26.58;;;;;;;-0.73;100.00;94520.66;1048179;28;20027;-69
2022/12/10 00:06:27;;;;;;;90.18;26.40;;;;;;;-0.73;100.00;94530.19;1052094;28;20055;-68
2022/12/10 00:06:57;;;;;;;93.40;26.02;;;;;;;-0.84;100.00;94520.63;1047253;28;20028;-67
2022/12/10 00:07:28;;;;;;;89.20;26.73;;;;;;;-0.80;100.00;94529.50;1047190;28;20047;-69
2022/12/10 00:07:58;;;;;;;88.70;26.75;;;;;;;-0.78;100.00;94532.63;1042928;28;20025;-69
2022/12/10 00:08:29;;;;;;;87.65;26.00;;;;;;;-0.78;100.00;94528.25;1041911;28;20032;-71
2022/12/10 00:09:03;;;;;;;95.40;27.50;;;;;;;-0.81;100.00;94533.06;1051466;28;20056;-68
2022/12/10 00:09:34;;;;;;;96.62;27.36;;;;;;;-0.84;100.00;94531.75;1047577;28;20458;-69
2022/12/10 00:10:05;;;;;;;91.53;26.13;;;;;;;-0.97;100.00;94522.41;1051208;28;20152;-70
2022/12/10 00:10:39;;;;;;;97.40;26.63;;;;;;;-0.93;100.00;94530.50;1051440;28;20039;-68
2022/12/10 00:11:10;;;;;;;93.08;26.38;;;;;;;-0.95;100.00;94530.69;1047859;28;20032;-69
2022/12/10 00:11:41;;;;;;;95.88;28.04;;;;;;;-0.95;100.00;94537.63;1051405;28;20032;-69
2022/12/10 00:12:11;;;;;;;95.80;26.90;;;;;;;-0.90;100.00;94535.19;1046676;28;20097;-72
2022/12/10 00:12:42;;;;;;;93.05;26.35;;;;;;;-0.92;100.00;94537.19;1046930;28;20167;-69
2022/12/10 00:13:12;;;;;;;94.88;26.52;;;;;;;-0.91;100.00;94538.75;1047239;28;20111;-67
2022/12/10 00:13:43;;;;;;;93.25;26.15;;;;;;;-0.90;100.00;94537.78;1050516;28;20633;-70
2022/12/10 00:14:14;;;;;;;97.02;27.80;;;;;;;-0.90;100.00;94537.00;1051111;28;20032;-71
2022/12/10 00:14:44;;;;;;;97.30;27.83;;;;;;;-0.92;100.00;94532.06;1051170;28;20032;-68
2022/12/10 00:15:16;;;;;;;86.38;26.45;;;;;;;-0.87;100.00;94541.69;1051353;28;20028;-70
2022/12/10 00:15:46;;;;;;;91.84;27.20;;;;;;;-0.86;100.00;94541.47;1051456;28;20118;-69
2022/12/10 00:16:18;;;;;;;89.75;25.92;;;;;;;-0.92;100.00;94542.34;1047116;28;20450;-68
2022/12/10 00:16:48;;;;;;;94.86;26.28;;;;;;;-0.92;100.00;94539.78;1039158;28;20143;-69
2022/12/10 00:17:19;;;;;;;93.25;28.05;;;;;;;-0.86;100.00;94551.78;1047404;28;20024;-69
2022/12/10 00:17:49;;;;;;;106.93;28.20;;;;;;;-0.85;100.00;94542.25;1047145;28;20024;-69
2022/12/10 00:18:20;;;;;;;86.43;24.92;;;;;;;-0.85;100.00;94548.19;1051481;28;20052;-70
2022/12/10 00:18:50;;;;;;;89.72;26.75;;;;;;;-0.81;100.00;94548.53;1049351;28;20023;-69
2022/12/10 00:19:21;;;;;;;80.53;26.42;;;;;;;-0.78;100.00;94554.00;1047160;28;20153;-69
2022/12/10 00:19:51;;;;;;;102.40;26.13;;;;;;;-0.77;100.00;94545.31;1051133;28;20020;-68
2022/12/10 00:20:22;;;;;;;94.82;26.10;;;;;;;-0.79;100.00;94549.09;1051438;28;20020;-71
2022/12/10 00:20:52;;;;;;;78.80;26.45;;;;;;;-0.84;100.00;94536.09;1051028;28;20031;-68
2022/12/10 00:21:25;;;;;;;89.65;27.90;;;;;;;-0.73;100.00;94551.56;1045621;28;20013;-72
2022/12/10 00:21:55;;;;;;;97.54;26.42;;;;;;;-0.73;100.00;94551.56;1046911;28;20506;-68
2022/12/10 00:22:25;;;;;;;83.72;24.77;;;;;;;-0.79;100.00;94544.72;1046654;28;20027;-67
2022/12/10 00:22:56;;;;;;;86.13;25.88;;;;;;;-0.81;100.00;94551.88;1047210;28;20420;-71
2022/12/10 00:23:26;;;;;;;79.65;25.50;;;;;;;-0.87;100.00;94539.91;1047651;28;20025;-68
2022/12/10 00:23:57;;;;;;;77.32;24.95;;;;;;;-0.76;100.00;94544.28;1051508;28;20043;-70
2022/12/10 00:24:27;;;;;;;88.18;25.80;;;;;;;-0.74;100.00;94549.22;1047252;28;20036;-66
2022/12/10 00:24:58;;;;;;;77.57;24.67;;;;;;;-0.74;100.00;94546.63;1047304;28;20024;-72
2022/12/10 00:25:28;;;;;;;84.40;26.65;;;;;;;-0.82;100.00;94536.66;1047510;28;20021;-68
2022/12/10 00:26:08;;;;;;;79.47;24.67;;;;;;;-0.68;100.00;94552.69;1047057;28;20027;-69
2022/12/10 00:26:39;;;;;;;83.10;25.45;;;;;;;-0.67;100.00;94546.53;1051770;28;20195;-69
2022/12/10 00:27:09;;;;;;;76.95;25.20;;;;;;;-0.66;100.00;94550.69;1051770;28;20043;-69
2022/12/10 00:27:40;;;;;;;80.78;25.08;;;;;;;-0.62;100.00;94551.81;1051511;28;20093;-69
2022/12/10 00:28:10;;;;;;;81.15;27.15;;;;;;;-0.73;100.00;94533.56;1047126;28;20059;-69
2022/12/10 00:28:41;;;;;;;79.30;26.23;;;;;;;-0.72;100.00;94539.47;1047319;28;20028;-69
2022/12/10 00:29:12;;;;;;;71.28;23.27;;;;;;;-0.74;100.00;94541.47;1043461;28;20033;-68
2022/12/10 00:29:42;;;;;;;75.43;24.90;;;;;;;-0.76;100.00;94546.09;1040098;28;20022;-67
2022/12/10 00:30:13;;;;;;;72.70;23.20;;;;;;;-0.76;100.00;94546.88;1042954;28;20024;-68
2022/12/10 00:30:43;;;;;;;78.70;25.05;;;;;;;-0.81;100.00;94543.38;1043501;28;20092;-71
2022/12/10 00:31:18;;;;;;;70.20;24.60;;;;;;;-0.79;100.00;94543.94;1047350;28;20028;-68
2022/12/10 00:31:49;;;;;;;79.06;24.98;;;;;;;-0.89;100.00;94547.06;1051370;28;20582;-68
2022/12/10 00:32:19;;;;;;;74.97;24.40;;;;;;;-0.86;100.00;94541.47;1046257;28;20109;-71
2022/12/10 00:32:49;;;;;;;77.10;24.58;;;;;;;-1.02;100.00;94521.50;1047778;28;20386;-68
2022/12/10 00:33:20;;;;;;;73.30;25.20;;;;;;;-0.86;100.00;94545.84;1051529;28;20024;-68
2022/12/10 00:33:52;;;;;;;74.38;23.75;;;;;;;-0.86;100.00;94543.25;1051221;28;20023;-71
2022/12/10 00:34:22;;;;;;;67.34;22.74;;;;;;;-0.83;100.00;94546.19;1042971;28;20721;-70
2022/12/10 00:34:53;;;;;;;76.28;24.33;;;;;;;-0.82;100.00;94545.16;1043300;28;20083;-70
2022/12/10 00:35:23;;;;;;;72.57;24.83;;;;;;;-0.91;100.00;94530.25;1042915;28;20021;-69
2022/12/10 00:35:54;;;;;;;76.38;23.58;;;;;;;-0.81;100.00;94549.31;1043402;28;20029;-68
2022/12/10 00:36:32;;;;;;;75.38;25.73;;;;;;;-0.85;100.00;94537.09;1051843;28;20016;-70
2022/12/10 00:37:03;;;;;;;73.62;24.68;;;;;;;-0.82;100.00;94550.31;1050873;28;20023;-69
2022/12/10 00:37:33;;;;;;;71.93;24.10;;;;;;;-0.80;100.00;94550.13;1047182;28;20025;-71
2022/12/10 00:38:04;;;;;;;81.95;25.38;;;;;;;-0.81;100.00;94551.88;1043080;28;20096;-69
2022/12/10 00:38:34;;;;;;;70.07;25.17;;;;;;;-0.82;100.00;94547.75;1043362;28;20028;-67
2022/12/10 00:39:05;;;;;;;76.53;24.73;;;;;;;-0.82;100.00;94549.53;1047364;28;20103;-69
2022/12/10 00:39:35;;;;;;;65.57;23.50;;;;;;;-0.82;100.00;94550.31;1047058;28;20013;-68
2022/12/10 00:40:07;;;;;;;74.43;24.40;;;;;;;-0.83;100.00;94547.97;1047162;28;20027;-69
2022/12/10 00:40:37;;;;;;;65.52;23.10;;;;;;;-0.86;100.00;94551.00;1049507;28;20584;-69
2022/12/10 00:41:08;;;;;;;73.78;24.02;;;;;;;-0.86;100.00;94551.78;1050834;28;20020;-68
2022/12/10 00:41:38;;;;;;;69.65;24.33;;;;;;;-0.83;100.00;94551.34;1051108;28;20024;-67
2022/12/10 00:42:09;;;;;;;78.80;24.77;;;;;;;-0.80;100.00;94553.47;1050671;28;20024;-70
2022/12/10 00:42:39;;;;;;;77.78;25.80;;;;;;;-0.78;100.00;94554.00;1050564;28;20578;-68
2022/12/10 00:43:10;;;;;;;79.15;24.30;;;;;;;-0.75;100.00;94558.72;1051262;28;20047;-67
2022/12/10 00:43:40;;;;;;;70.50;23.48;;;;;;;-0.67;100.00;94562.78;1051527;28;20655;-70
2022/12/10 00:44:11;;;;;;;65.03;24.27;;;;;;;-0.69;100.00;94569.16;1051295;28;20020;-71
2022/12/10 00:44:41;;;;;;;70.53;24.50;;;;;;;-0.69;100.00;94562.22;1051491;28;20023;-69
2022/12/10 00:45:12;;;;;;;74.03;23.70;;;;;;;-0.68;100.00;94568.16;1046914;28;20036;-68
2022/12/10 00:45:42;;;;;;;68.47;23.30;;;;;;;-0.69;100.00;94564.00;1046643;28;20028;-69
2022/12/10 00:46:14;;;;;;;65.75;23.55;;;;;;;-0.65;100.00;94563.34;1041795;28;20589;-69
2022/12/10 00:46:44;;;;;;;69.58;23.80;;;;;;;-0.58;100.00;94560.66;1034575;28;20017;-70
2022/12/10 00:47:14;;;;;;;71.38;24.05;;;;;;;-0.55;100.00;94565.38;1038488;28;20053;-69
2022/12/10 00:47:45;;;;;;;66.60;23.45;;;;;;;-0.55;100.00;94565.38;1039129;28;20423;-69
2022/12/10 00:48:15;;;;;;;72.90;23.80;;;;;;;-0.55;100.00;94562.81;1043207;28;20032;-67
2022/12/10 00:48:46;;;;;;;63.08;23.00;;;;;;;-0.61;100.00;94548.22;1051498;28;20468;-69
2022/12/10 00:49:16;;;;;;;63.58;23.45;;;;;;;-0.52;100.00;94562.34;1050965;28;20028;-67
2022/12/10 00:49:47;;;;;;;59.67;22.60;;;;;;;-0.53;100.00;94550.50;1051592;28;20060;-71
2022/12/10 00:50:17;;;;;;;67.20;23.42;;;;;;;-0.59;100.00;94551.38;1051298;28;20023;-69
2022/12/10 00:51:05;;;;;;;59.63;23.15;;;;;;;-0.58;100.00;94552.94;1051058;28;20028;-68
2022/12/10 00:51:36;;;;;;;70.36;23.78;;;;;;;-0.64;100.00;94558.97;1051133;28;20043;-69
2022/12/10 00:52:06;;;;;;;61.30;22.83;;;;;;;-0.76;100.00;94554.59;1050947;28;20032;-67
2022/12/10 00:52:37;;;;;;;65.53;23.23;;;;;;;-0.78;100.00;94548.88;1046043;28;20082;-68
2022/12/10 00:53:07;;;;;;;62.20;23.20;;;;;;;-0.83;100.00;94545.41;1042625;28;20029;-71
2022/12/10 00:53:38;;;;;;;64.22;23.42;;;;;;;-0.83;100.00;94548.75;1038936;28;20519;-70
2022/12/10 00:54:09;;;;;;;62.96;23.28;;;;;;;-0.87;100.00;94542.47;1038849;28;20040;-70
2022/12/10 00:54:40;;;;;;;65.38;23.63;;;;;;;-0.89;100.00;94551.44;1043262;28;20521;-68
2022/12/10 00:55:11;;;;;;;62.52;22.58;;;;;;;-0.88;100.00;94555.56;1047268;28;20032;-69
2022/12/10 00:55:41;;;;;;;62.03;23.52;;;;;;;-0.93;100.00;94535.63;1051108;28;20028;-68
2022/12/10 00:56:15;;;;;;;66.13;23.17;;;;;;;-0.82;100.00;94552.91;1051510;28;20059;-68
2022/12/10 00:56:45;;;;;;;67.72;23.70;;;;;;;-0.77;100.00;94558.19;1051394;28;20032;-70
2022/12/10 00:57:16;;;;;;;69.78;24.73;;;;;;;-0.77;100.00;94560.75;1051067;28;20549;-67
2022/12/10 00:57:46;;;;;;;59.75;22.67;;;;;;;-0.73;100.00;94559.31;1051173;28;20020;-69
2022/12/10 00:58:17;;;;;;;68.82;22.98;;;;;;;-0.72;100.00;94558.28;1051258;28;20020;-67
2022/12/10 00:58:47;;;;;;;79.85;26.17;;;;;;;-0.89;100.00;94536.75;1046601;28;20367;-71
2022/12/10 00:59:18;;;;;;;66.80;24.08;;;;;;;-0.66;100.00;94571.31;1042570;28;20032;-68
2022/12/10 00:59:48;;;;;;;71.85;23.65;;;;;;;-0.63;100.00;94568.28;1038467;28;20573;-69
2022/12/10 01:00:19;;;;;;;75.75;26.20;;;;;;;-0.67;100.00;94564.56;1039019;28;20036;-71
2022/12/10 01:00:49;;;;;;;64.50;23.20;;;;;;;-0.76;100.00;94540.94;1042773;28;20146;-68
2022/12/10 01:01:24;;;;;;;61.03;23.73;;;;;;;-0.63;100.00;94568.28;1042984;28;20039;-67
2022/12/10 01:01:54;;;;;;;68.82;23.62;;;;;;;-0.90;100.00;94531.84;1042754;28;20035;-69
2022/12/10 01:02:24;;;;;;;62.40;23.10;;;;;;;-0.68;100.00;94571.50;1042746;28;20068;-67
2022/12/10 01:02:55;;;;;;;66.25;23.98;;;;;;;-0.68;100.00;94563.00;1047569;28;20029;-68
2022/12/10 01:03:25;;;;;;;63.08;24.15;;;;;;;-0.67;100.00;94565.38;1051446;28;20708;-73
2022/12/10 01:04:03;;;;;;;66.03;22.80;;;;;;;-0.66;100.00;94569.50;1051322;28;20020;-67
2022/12/10 01:04:34;;;;;;;70.22;23.92;;;;;;;-0.59;100.00;94566.84;1050856;28;20066;-68
2022/12/10 01:05:04;;;;;;;71.10;22.98;;;;;;;-0.58;100.00;94565.81;1051215;28;20050;-68
2022/12/10 01:05:35;;;;;;;65.30;23.25;;;;;;;-0.54;100.00;94565.16;1050641;28;20058;-70
2022/12/10 01:06:11;;;;;;;69.45;25.02;;;;;;;-0.55;100.00;94570.53;1051014;28;20081;-71
2022/12/10 01:06:48;;;;;;;63.26;23.04;;;;;;;-0.54;100.00;94567.75;1047659;28;20029;-67
2022/12/10 01:07:18;;;;;;;65.68;23.74;;;;;;;-0.65;100.00;94547.09;1051236;28;20031;-71
2022/12/10 01:07:52;;;;;;;72.25;25.73;;;;;;;-0.58;100.00;94570.97;1051097;28;20146;-68
2022/12/10 01:08:22;;;;;;;69.56;24.24;;;;;;;-0.62;100.00;94573.19;1048436;28;20020;-68
2022/12/10 01:08:54;;;;;;;61.67;24.52;;;;;;;-0.65;100.00;94568.50;1051194;28;20028;-67
2022/12/10 01:09:27;;;;;;;68.90;23.38;;;;;;;-0.65;100.00;94575.44;1042542;28;20025;-70
2022/12/10 01:09:58;;;;;;;67.82;24.00;;;;;;;-0.64;100.00;94570.06;1039557;28;20527;-70
2022/12/10 01:10:28;;;;;;;65.72;22.80;;;;;;;-0.63;100.00;94570.88;1042919;28;20036;-68
2022/12/10 01:10:59;;;;;;;63.45;23.38;;;;;;;-0.64;100.00;94575.19;1043367;28;20345;-68
2022/12/10 01:11:31;;;;;;;72.45;25.42;;;;;;;-0.62;100.00;94572.44;1047235;28;20032;-69
2022/12/10 01:12:02;;;;;;;75.72;25.62;;;;;;;-0.64;100.00;94564.91;1051056;28;20027;-67
2022/12/10 01:12:32;;;;;;;67.38;24.40;;;;;;;-0.59;100.00;94574.56;1050411;28;20082;-70
2022/12/10 01:13:03;;;;;;;69.10;24.77;;;;;;;-0.56;100.00;94574.13;1051086;28;20082;-69
2022/12/10 01:13:34;;;;;;;64.32;25.17;;;;;;;-0.56;100.00;94571.53;1046781;28;20028;-69
2022/12/10 01:14:09;;;;;;;66.15;23.80;;;;;;;-0.52;100.00;94572.66;1038569;28;20592;-69
2022/12/10 01:14:39;;;;;;;71.32;24.56;;;;;;;-0.51;100.00;94572.44;1031721;28;20022;-68
2022/12/10 01:15:10;;;;;;;71.07;24.77;;;;;;;-0.53;100.00;94576.25;1031321;28;20105;-70
2022/12/10 01:15:40;;;;;;;70.78;23.70;;;;;;;-0.49;100.00;94572.22;1031423;28;20027;-68
2022/12/10 01:16:12;;;;;;;70.22;24.38;;;;;;;-0.49;100.00;94567.84;1034644;28;20554;-69
2022/12/10 01:16:43;;;;;;;71.24;25.14;;;;;;;-0.54;100.00;94564.34;1038857;28;20021;-69
2022/12/10 01:17:13;;;;;;;71.20;24.40;;;;;;;-0.53;100.00;94571.88;1039593;28;20021;-69
2022/12/10 01:17:44;;;;;;;67.78;24.90;;;;;;;-0.52;100.00;94562.34;1046640;28;20032;-70
2022/12/10 01:18:14;;;;;;;72.25;24.52;;;;;;;-0.51;100.00;94562.13;1046864;28;20029;-68
2022/12/10 01:18:45;;;;;;;74.82;26.33;;;;;;;-0.48;100.00;94558.31;1049911;28;20082;-68
2022/12/10 01:19:15;;;;;;;78.20;26.38;;;;;;;-0.44;100.00;94559.44;1051159;28;20019;-67
2022/12/10 01:19:46;;;;;;;72.72;24.65;;;;;;;-0.49;100.00;94557.53;1051355;28;20027;-70
2022/12/10 01:20:16;;;;;;;65.15;23.05;;;;;;;-0.47;100.00;94554.72;1050962;28;20053;-69
2022/12/10 01:20:47;;;;;;;65.70;24.85;;;;;;;-0.42;100.00;94561.81;1047997;28;20443;-72
2022/12/10 01:21:18;;;;;;;68.28;24.00;;;;;;;-0.42;100.00;94561.81;1044587;28;20071;-69
2022/12/10 01:21:52;;;;;;;71.30;24.86;;;;;;;-0.41;100.00;94565.94;1051123;28;20038;-68
2022/12/10 01:22:23;;;;;;;68.42;24.96;;;;;;;-0.46;100.00;94571.78;1040600;28;20016;-69
2022/12/10 01:22:53;;;;;;;68.30;24.30;;;;;;;-0.44;100.00;94559.44;1039130;28;20021;-70
2022/12/10 01:23:24;;;;;;;70.68;25.33;;;;;;;-0.43;100.00;94565.41;1042993;28;20009;-70
2022/12/10 01:23:54;;;;;;;65.15;24.88;;;;;;;-0.46;100.00;94558.91;1043508;28;20017;-67
2022/12/10 01:24:26;;;;;;;61.08;24.48;;;;;;;-0.48;100.00;94563.47;1042847;28;20429;-69
2022/12/10 01:24:57;;;;;;;64.50;23.42;;;;;;;-0.45;100.00;94564.84;1046916;28;20123;-67
2022/12/10 01:25:27;;;;;;;65.45;24.35;;;;;;;-0.41;100.00;94560.78;1047144;28;20025;-68
2022/12/10 01:26:06;;;;;;;59.55;22.35;;;;;;;-0.42;100.00;94560.00;1047526;28;20037;-67
2022/12/10 01:26:37;;;;;;;65.88;25.02;;;;;;;-0.54;100.00;94564.34;1051683;28;20025;-69
2022/12/10 01:27:07;;;;;;;60.05;23.42;;;;;;;-0.57;100.00;94564.81;1051572;28;20264;-67
2022/12/10 01:27:38;;;;;;;58.95;23.63;;;;;;;-0.62;100.00;94552.59;1051662;28;20070;-67
2022/12/10 01:28:08;;;;;;;66.80;23.40;;;;;;;-0.52;100.00;94564.94;1047431;28;20020;-69
2022/12/10 01:28:39;;;;;;;62.38;23.60;;;;;;;-0.56;100.00;94568.97;1047319;28;20489;-69
2022/12/10 01:29:10;;;;;;;59.13;23.35;;;;;;;-0.50;100.00;94562.94;1038612;28;20033;-68
2022/12/10 01:29:40;;;;;;;59.58;23.98;;;;;;;-0.48;100.00;94566.84;1035023;28;20017;-69
2022/12/10 01:30:11;;;;;;;56.65;22.90;;;;;;;-0.55;100.00;94560.22;1039110;28;20022;-69
2022/12/10 01:30:42;;;;;;;55.60;23.23;;;;;;;-0.50;100.00;94566.28;1035794;28;20069;-66
2022/12/10 01:31:17;;;;;;;60.78;22.90;;;;;;;-0.48;100.00;94571.22;1047599;28;20020;-70
2022/12/10 01:31:51;;;;;;;51.20;22.12;;;;;;;-0.57;100.00;94565.59;1047462;28;20421;-67
2022/12/10 01:32:21;;;;;;;48.90;22.32;;;;;;;-0.66;100.00;94563.56;1044005;28;20025;-68
2022/12/10 01:32:52;;;;;;;54.20;22.20;;;;;;;-0.60;100.00;94562.69;1047138;28;20029;-68
2022/12/10 01:33:22;;;;;;;58.45;22.20;;;;;;;-0.60;100.00;94562.69;1048082;28;20017;-70
2022/12/10 01:33:53;;;;;;;51.80;23.02;;;;;;;-0.66;100.00;94561.00;1044055;28;20021;-67
2022/12/10 01:34:23;;;;;;;60.38;22.65;;;;;;;-0.65;100.00;94570.28;1043387;28;20021;-68
2022/12/10 01:34:54;;;;;;;53.92;21.42;;;;;;;-0.63;100.00;94560.56;1035018;28;20014;-67
2022/12/10 01:35:24;;;;;;;60.80;24.00;;;;;;;-0.64;100.00;94575.19;1036985;28;20018;-69
2022/12/10 01:35:55;;;;;;;56.38;23.98;;;;;;;-0.59;100.00;94569.41;1043499;28;20028;-69
2022/12/10 01:36:31;;;;;;;55.22;22.55;;;;;;;-0.60;100.00;94570.41;1047730;28;20028;-68
2022/12/10 01:37:02;;;;;;;57.56;22.44;;;;;;;-0.60;100.00;94570.41;1038874;28;20026;-67
2022/12/10 01:37:32;;;;;;;61.58;24.23;;;;;;;-0.61;100.00;94569.63;1035183;28;20351;-70
2022/12/10 01:38:03;;;;;;;56.15;22.27;;;;;;;-0.74;100.00;94550.00;1035011;28;20021;-68
2022/12/10 01:38:34;;;;;;;50.83;21.67;;;;;;;-0.72;100.00;94550.56;1035009;28;20388;-69
2022/12/10 01:39:05;;;;;;;56.38;24.27;;;;;;;-0.57;100.00;94570.75;1043207;28;20037;-67
2022/12/10 01:39:36;;;;;;;61.34;23.46;;;;;;;-0.56;100.00;94564.59;1043147;28;20023;-70
2022/12/10 01:40:07;;;;;;;53.13;22.10;;;;;;;-0.57;100.00;94569.94;1043710;28;20028;-70
2022/12/10 01:40:38;;;;;;;55.74;22.74;;;;;;;-0.55;100.00;94562.81;1038705;28;20041;-68
2022/12/10 01:41:13;;;;;;;54.88;23.08;;;;;;;-0.56;100.00;94571.53;1038503;28;20029;-68
2022/12/10 01:41:55;;;;;;;62.64;23.00;;;;;;;-0.56;100.00;94567.16;1039143;28;20025;-66
2022/12/10 01:42:25;;;;;;;57.30;22.54;;;;;;;-0.56;100.00;94568.97;1042640;28;20037;-68
2022/12/10 01:42:56;;;;;;;52.47;22.00;;;;;;;-0.52;100.00;94570.88;1045569;28;20036;-67
2022/12/10 01:43:26;;;;;;;52.22;20.70;;;;;;;-0.56;100.00;94561.25;1048909;28;20028;-66
2022/12/10 01:43:59;;;;;;;58.58;23.58;;;;;;;-0.62;100.00;94562.13;1043059;28;20025;-69
2022/12/10 01:44:29;;;;;;;53.90;21.16;;;;;;;-0.61;100.00;94566.25;1039470;28;20539;-67
2022/12/10 01:45:03;;;;;;;53.00;23.48;;;;;;;-0.59;100.00;94572.75;1043011;28;20057;-66
2022/12/10 01:45:34;;;;;;;54.18;22.68;;;;;;;-0.58;100.00;94568.41;1040271;28;20543;-68
2022/12/10 01:46:04;;;;;;;55.13;22.65;;;;;;;-0.57;100.00;94569.94;1048166;28;20029;-67
2022/12/10 01:46:36;;;;;;;54.30;22.25;;;;;;;-0.60;100.00;94570.41;1051519;28;20035;-68
2022/12/10 01:47:07;;;;;;;53.10;21.56;;;;;;;-0.61;100.00;94566.25;1047692;28;20024;-72
2022/12/10 01:47:37;;;;;;;58.63;23.48;;;;;;;-0.62;100.00;94565.47;1047222;28;20434;-66
2022/12/10 01:48:08;;;;;;;56.33;23.20;;;;;;;-0.57;100.00;94563.03;1047373;28;20406;-66
2022/12/10 01:48:38;;;;;;;53.03;23.38;;;;;;;-0.55;100.00;94567.94;1039517;28;20029;-67
2022/12/10 01:49:18;;;;;;;54.90;23.95;;;;;;;-0.56;100.00;94564.59;1043151;28;20028;-69
2022/12/10 01:49:49;;;;;;;50.83;21.63;;;;;;;-0.64;100.00;94564.91;1039116;28;20109;-69
2022/12/10 01:50:19;;;;;;;58.30;23.17;;;;;;;-0.60;100.00;94570.41;1041848;28;20048;-68
2022/12/10 01:50:50;;;;;;;51.53;22.08;;;;;;;-0.58;100.00;94569.16;1043030;28;20426;-68
2022/12/10 01:51:20;;;;;;;51.10;22.42;;;;;;;-0.60;100.00;94571.19;1043479;28;20600;-67
2022/12/10 01:51:53;;;;;;;57.47;23.23;;;;;;;-0.69;100.00;94553.72;1051451;28;20016;-69
2022/12/10 01:52:23;;;;;;;53.18;22.18;;;;;;;-0.58;100.00;94570.97;1042662;28;20020;-67
2022/12/10 01:52:54;;;;;;;55.67;23.02;;;;;;;-0.62;100.00;94568.06;1047549;28;20474;-67
2022/12/10 01:53:24;;;;;;;52.17;21.27;;;;;;;-0.76;100.00;94549.44;1043287;28;20024;-68
2022/12/10 01:53:55;;;;;;;50.10;20.88;;;;;;;-0.53;100.00;94571.09;1043677;28;20013;-69
2022/12/10 01:54:33;;;;;;;56.05;23.00;;;;;;;-0.56;100.00;94571.53;1047477;28;20025;-67
2022/12/10 01:55:07;;;;;;;50.00;21.74;;;;;;;-0.58;100.00;94570.97;1044294;28;20017;-69
2022/12/10 01:55:45;;;;;;;50.50;22.36;;;;;;;-0.58;100.00;94568.41;1047198;28;20446;-67
2022/12/10 01:56:16;;;;;;;49.22;22.60;;;;;;;-0.57;100.00;94575.09;1047320;28;20450;-68
2022/12/10 01:56:50;;;;;;;49.58;21.28;;;;;;;-0.54;100.00;94574.66;1045185;28;20016;-71
2022/12/10 01:57:22;;;;;;;53.88;21.80;;;;;;;-0.56;100.00;94571.53;1047316;28;20016;-67
2022/12/10 01:57:53;;;;;;;51.86;22.74;;;;;;;-0.61;100.00;94571.41;1043050;28;20094;-71
2022/12/10 01:58:23;;;;;;;52.63;22.95;;;;;;;-0.58;100.00;94563.25;1040083;28;20116;-68
2022/12/10 01:58:55;;;;;;;48.40;21.80;;;;;;;-0.58;100.00;94568.41;1043540;28;20441;-67
2022/12/10 01:59:26;;;;;;;52.82;23.04;;;;;;;-0.54;100.00;94569.50;1043569;28;20021;-69
2022/12/10 01:59:59;;;;;;;54.20;21.76;;;;;;;-0.60;100.00;94570.41;1047196;28;20024;-68
2022/12/10 02:00:30;;;;;;;57.20;21.92;;;;;;;-0.56;100.00;94572.31;1039111;28;20026;-68
2022/12/10 02:01:11;;;;;;;48.24;20.50;;;;;;;-0.52;100.00;94572.66;1035236;28;20069;-67
2022/12/10 02:02:03;;;;;;;54.30;22.38;;;;;;;-0.55;100.00;94573.09;1037030;28;20498;-70
2022/12/10 02:02:36;;;;;;;47.86;20.86;;;;;;;-0.57;100.00;94575.09;1046803;28;20739;-70
2022/12/10 02:03:10;;;;;;;51.66;21.24;;;;;;;-0.56;100.00;94576.69;1051654;28;20028;-68
2022/12/10 02:03:47;;;;;;;47.36;21.26;;;;;;;-0.66;100.00;94571.31;1043511;28;20021;-67
2022/12/10 02:04:33;;;;;;;47.06;20.92;;;;;;;-0.57;100.00;94575.09;1043004;28;20083;-69
2022/12/10 02:05:06;;;;;;;48.34;20.38;;;;;;;-0.60;100.00;94578.16;1047001;28;20498;-69
2022/12/10 02:05:40;;;;;;;52.36;22.70;;;;;;;-0.63;100.00;94579.38;1046048;28;20025;-67
2022/12/10 02:06:32;;;;;;;46.96;20.58;;;;;;;-0.60;100.00;94580.72;1043127;28;20013;-67
2022/12/10 02:07:22;;;;;;;48.68;21.56;;;;;;;-0.66;100.00;94581.59;1043206;28;20497;-67
2022/12/10 02:08:07;;;;;;;50.16;20.48;;;;;;;-0.68;100.00;94578.44;1051630;28;20027;-67
2022/12/10 02:08:49;;;;;;;47.74;20.82;;;;;;;-0.87;100.00;94560.50;1051950;28;20374;-67
2022/12/10 02:09:32;;;;;;;50.40;21.96;;;;;;;-0.90;100.00;94555.78;1047441;28;20028;-70
2022/12/10 02:10:19;;;;;;;47.42;20.12;;;;;;;-0.93;100.00;94551.09;1043203;28;20021;-67
2022/12/10 02:11:13;;;;;;;49.22;20.98;;;;;;;-0.91;100.00;94579.16;1040095;28;20029;-67
2022/12/10 02:11:48;;;;;;;51.80;22.16;;;;;;;-0.87;100.00;94575.97;1048721;28;20021;-69
2022/12/10 02:12:34;;;;;;;48.70;21.12;;;;;;;-0.87;100.00;94577.72;1046539;28;20035;-68
2022/12/10 02:13:21;;;;;;;51.54;21.52;;;;;;;-0.86;100.00;94571.59;1051260;28;20020;-66
2022/12/10 02:14:05;;;;;;;46.12;20.80;;;;;;;-0.88;100.00;94579.50;1043202;28;20544;-68
2022/12/10 02:14:41;;;;;;;49.44;20.80;;;;;;;-0.88;100.00;94574.38;1043006;28;20059;-69
2022/12/10 02:15:24;;;;;;;51.58;22.54;;;;;;;-0.90;100.00;94578.97;1039029;28;20087;-67
2022/12/10 02:16:04;;;;;;;60.52;22.98;;;;;;;-0.99;100.00;94567.41;1043213;28;20028;-67
2022/12/10 02:16:43;;;;;;;54.65;22.13;;;;;;;-0.96;100.00;94567.75;1039368;28;20028;-68
2022/12/10 02:17:17;;;;;;;48.54;21.44;;;;;;;-0.93;100.00;94576.84;1040062;28;20032;-70
2022/12/10 02:18:17;;;;;;;50.66;21.72;;;;;;;-0.96;100.00;94577.25;1042828;28;20549;-67
2022/12/10 02:18:55;;;;;;;46.08;20.58;;;;;;;-0.96;100.00;94579.84;1044047;28;20021;-66
2022/12/10 02:19:52;;;;;;;50.94;20.96;;;;;;;-1.06;100.00;94561.56;1043854;28;20013;-70
2022/12/10 02:20:26;;;;;;;51.62;21.34;;;;;;;-0.89;100.00;94577.97;1043691;28;20029;-67
2022/12/10 02:20:58;;;;;;;51.96;22.30;;;;;;;-1.05;100.00;94563.13;1035293;28;20494;-67
2022/12/10 02:21:32;;;;;;;51.68;23.10;;;;;;;-0.97;100.00;94576.47;1034790;28;20621;-67
2022/12/10 02:22:03;;;;;;;51.36;23.28;;;;;;;-0.96;100.00;94574.69;1031108;28;20022;-68
2022/12/10 02:22:37;;;;;;;54.03;23.90;;;;;;;-0.99;100.00;94582.84;1031092;28;20077;-70
2022/12/10 02:23:10;;;;;;;50.44;21.82;;;;;;;-1.08;100.00;94576.44;1035511;28;20103;-70
2022/12/10 02:23:43;;;;;;;57.22;22.90;;;;;;;-1.11;100.00;94571.72;1036691;28;20121;-67
2022/12/10 02:24:15;;;;;;;50.42;22.12;;;;;;;-1.11;100.00;94566.56;1041132;28;20619;-69
2022/12/10 02:24:47;;;;;;;54.58;22.94;;;;;;;-1.11;100.00;94569.94;1039401;28;20345;-68
2022/12/10 02:25:20;;;;;;;53.50;22.20;;;;;;;-1.10;100.00;94571.50;1039702;28;20057;-69
2022/12/10 02:26:09;;;;;;;57.12;24.46;;;;;;;-1.07;100.00;94570.31;1031675;28;20118;-66
2022/12/10 02:27:00;;;;;;;48.76;22.14;;;;;;;-1.09;100.00;94573.06;1031000;28;20085;-69
2022/12/10 02:27:45;;;;;;;53.62;21.90;;;;;;;-1.09;100.00;94567.16;1036437;28;20026;-67
2022/12/10 02:28:21;;;;;;;54.60;21.16;;;;;;;-1.13;100.00;94576.31;1041304;28;20164;-67
2022/12/10 02:29:07;;;;;;;51.28;23.28;;;;;;;-1.13;100.00;94576.31;1047645;28;20020;-69